createdAt,value
2018-05-25T00:01:37.856Z,13.84
2018-05-25T00:04:10.404Z,13.83
2018-05-25T00:06:38.712Z,13.77
2018-05-25T00:09:09.514Z,13.74
2018-05-25T00:11:39.043Z,13.73
2018-05-25T00:14:10.647Z,13.73
2018-05-25T00:16:40.369Z,13.72
2018-05-25T00:19:18.723Z,13.68
2018-05-25T00:21:50.639Z,13.68
2018-05-25T00:24:26.883Z,13.66
2018-05-25T00:26:58.582Z,13.63
2018-05-25T00:29:39.918Z,13.66
2018-05-25T00:32:15.615Z,13.66
2018-05-25T00:34:52.668Z,13.65
2018-05-25T00:37:24.895Z,13.57
2018-05-25T00:39:55.032Z,13.47
2018-05-25T00:42:27.462Z,13.41
2018-05-25T00:45:08.355Z,13.39
2018-05-25T00:47:37.338Z,13.43
2018-05-25T00:50:05.688Z,13.38
2018-05-25T00:52:37.607Z,13.26
2018-05-25T00:55:27.871Z,13.21
2018-05-25T00:57:57.180Z,13.24
2018-05-25T01:00:28.715Z,13.25
2018-05-25T01:02:56.987Z,13.28
2018-05-25T01:05:27.276Z,13.29
2018-05-25T01:07:56.498Z,13.28
2018-05-25T01:10:24.780Z,13.23
2018-05-25T01:12:53.076Z,13.20
2018-05-25T01:15:21.338Z,13.21
2018-05-25T01:17:49.607Z,13.21
2018-05-25T01:20:17.925Z,13.20
2018-05-25T01:22:47.994Z,13.17
2018-05-25T01:25:23.977Z,13.14
2018-05-25T01:27:53.270Z,13.09
2018-05-25T01:30:35.893Z,13.03
2018-05-25T01:33:08.159Z,12.96
2018-05-25T01:35:40.436Z,12.93
2018-05-25T01:38:10.386Z,12.91
2018-05-25T01:40:43.750Z,12.88
2018-05-25T01:43:18.541Z,12.89
2018-05-25T01:46:06.593Z,12.92
2018-05-25T01:48:35.395Z,12.95
2018-05-25T01:51:04.690Z,12.91
2018-05-25T01:53:50.416Z,12.92
2018-05-25T01:56:20.491Z,12.89
2018-05-25T01:58:54.031Z,12.88
2018-05-25T02:01:30.157Z,12.87
2018-05-25T02:04:05.189Z,12.83
2018-05-25T02:06:37.313Z,12.79
2018-05-25T02:09:09.014Z,12.78
2018-05-25T02:11:47.675Z,12.78
2018-05-25T02:14:16.975Z,12.77
2018-05-25T02:16:47.041Z,12.75
2018-05-25T02:19:25.678Z,12.72
2018-05-25T02:21:53.932Z,12.64
2018-05-25T02:24:24.269Z,12.54
2018-05-25T02:27:03.934Z,12.54
2018-05-25T02:29:33.196Z,12.59
2018-05-25T02:32:14.854Z,12.66
2018-05-25T02:34:49.790Z,12.66
2018-05-25T02:37:19.074Z,12.70
2018-05-25T02:39:54.550Z,12.68
2018-05-25T02:42:29.203Z,12.60
2018-05-25T02:45:10.107Z,12.45
2018-05-25T02:47:45.042Z,12.34
2018-05-25T02:50:14.114Z,12.26
2018-05-25T02:52:45.966Z,12.18
2018-05-25T02:55:15.279Z,12.17
2018-05-25T02:57:50.494Z,12.24
2018-05-25T03:00:19.304Z,12.26
2018-05-25T03:02:53.086Z,12.29
2018-05-25T03:05:32.854Z,12.28
2018-05-25T03:08:01.249Z,12.27
2018-05-25T03:10:35.338Z,12.27
2018-05-25T03:13:09.509Z,12.29
2018-05-25T03:15:39.831Z,12.33
2018-05-25T03:18:15.099Z,12.35
2018-05-25T03:20:49.253Z,12.35
2018-05-25T03:23:17.484Z,12.33
2018-05-25T03:26:00.213Z,12.33
2018-05-25T03:28:36.090Z,12.33
2018-05-25T03:31:14.914Z,12.33
2018-05-25T03:33:43.178Z,12.31
2018-05-25T03:36:17.366Z,12.30
2018-05-25T03:38:51.115Z,12.32
2018-05-25T03:41:20.044Z,12.30
2018-05-25T03:44:08.091Z,12.31
2018-05-25T03:46:56.161Z,12.32
2018-05-25T03:49:29.647Z,12.32
2018-05-25T03:51:57.955Z,12.27
2018-05-25T03:54:31.254Z,12.30
2018-05-25T03:56:59.520Z,12.32
2018-05-25T03:59:46.512Z,12.34
2018-05-25T04:02:14.911Z,12.33
2018-05-25T04:04:43.230Z,12.34
2018-05-25T04:07:12.366Z,12.33
2018-05-25T04:09:45.500Z,12.33
2018-05-25T04:12:18.432Z,12.40
2018-05-25T04:14:59.204Z,12.43
2018-05-25T04:17:31.276Z,12.47
2018-05-25T04:20:04.106Z,12.52
2018-05-25T04:22:43.882Z,12.57
2018-05-25T04:25:13.127Z,12.61
2018-05-25T04:27:53.440Z,12.61
2018-05-25T04:30:29.250Z,12.59
2018-05-25T04:32:57.489Z,12.63
2018-05-25T04:35:25.772Z,12.78
2018-05-25T04:37:56.032Z,13.00
2018-05-25T04:40:24.274Z,13.28
2018-05-25T04:42:57.389Z,13.65
2018-05-25T04:45:36.859Z,14.15
2018-05-25T04:48:11.928Z,14.59
2018-05-25T04:50:40.368Z,14.98
2018-05-25T04:53:16.629Z,15.20
2018-05-25T04:55:47.631Z,15.47
2018-05-25T04:58:29.773Z,15.73
2018-05-25T05:01:11.160Z,15.97
2018-05-25T05:03:40.229Z,16.33
2018-05-25T05:06:08.559Z,16.60
2018-05-25T05:08:38.825Z,16.82
2018-05-25T05:11:07.106Z,17.07
2018-05-25T05:13:35.382Z,17.20
2018-05-25T05:16:17.107Z,17.48
2018-05-25T05:18:52.461Z,18.07
2018-05-25T05:21:32.437Z,18.80
2018-05-25T05:24:00.717Z,20.11
2018-05-25T05:26:32.900Z,21.57
2018-05-25T05:29:11.493Z,23.21
2018-05-25T05:32:05.049Z,24.72
2018-05-25T05:34:36.764Z,26.07
2018-05-25T05:37:18.180Z,26.79
2018-05-25T05:39:47.508Z,27.56
2018-05-25T05:42:16.831Z,28.12
2018-05-25T05:44:48.847Z,28.60
2018-05-25T05:47:18.197Z,29.29
2018-05-25T05:49:48.731Z,29.67
2018-05-25T05:52:22.731Z,30.12
2018-05-25T05:54:57.534Z,30.27
2018-05-25T05:57:26.764Z,30.62
2018-05-25T05:59:58.270Z,30.58
2018-05-25T06:02:28.548Z,30.93
2018-05-25T06:05:03.450Z,31.33
2018-05-25T06:07:35.862Z,30.28
2018-05-25T06:10:11.131Z,30.52
2018-05-25T06:12:39.482Z,30.70
2018-05-25T06:15:09.587Z,31.10
2018-05-25T06:17:37.850Z,31.44
2018-05-25T06:20:07.096Z,31.48
2018-05-25T06:22:35.420Z,30.07
2018-05-25T06:25:03.712Z,29.84
2018-05-25T06:27:31.992Z,28.03
2018-05-25T06:30:02.003Z,29.57
2018-05-25T06:32:36.110Z,30.57
2018-05-25T06:35:05.422Z,30.95
2018-05-25T06:37:33.882Z,30.34
2018-05-25T06:40:02.264Z,30.99
2018-05-25T06:42:30.536Z,31.22
2018-05-25T06:45:02.318Z,30.86
2018-05-25T06:47:34.996Z,29.81
2018-05-25T06:50:03.470Z,30.04
2018-05-25T06:52:31.863Z,30.94
2018-05-25T06:55:00.975Z,31.90
2018-05-25T06:57:30.047Z,32.12
2018-05-25T06:59:58.326Z,32.43
2018-05-25T07:02:26.600Z,32.30
2018-05-25T07:04:54.866Z,32.58
2018-05-25T07:07:23.143Z,32.51
2018-05-25T07:09:51.457Z,32.65
2018-05-25T07:12:22.521Z,29.53
2018-05-25T07:14:59.815Z,28.85
2018-05-25T07:17:34.951Z,29.33
2018-05-25T07:20:03.367Z,29.71
2018-05-25T07:22:32.671Z,31.41
2018-05-25T07:25:00.944Z,31.63
2018-05-25T07:27:29.240Z,30.87
2018-05-25T07:30:09.834Z,29.78
2018-05-25T07:32:49.663Z,32.04
2018-05-25T07:35:18.724Z,32.64
2018-05-25T07:37:51.564Z,33.55
2018-05-25T07:40:20.038Z,31.58
2018-05-25T07:42:53.211Z,30.70
2018-05-25T07:45:28.481Z,31.25
2018-05-25T07:47:59.955Z,30.37
2018-05-25T07:50:30.011Z,31.58
2018-05-25T07:53:15.104Z,32.35
2018-05-25T07:55:46.112Z,31.15
2018-05-25T07:58:16.801Z,32.64
2018-05-25T08:00:52.545Z,31.30
2018-05-25T08:03:24.255Z,32.00
2018-05-25T08:06:13.165Z,32.97
2018-05-25T08:08:45.926Z,33.16
2018-05-25T08:11:16.060Z,33.42
2018-05-25T08:13:59.679Z,33.59
2018-05-25T08:16:33.122Z,34.29
2018-05-25T08:19:08.706Z,33.93
2018-05-25T08:21:44.001Z,34.07
2018-05-25T08:24:16.114Z,33.51
2018-05-25T08:26:58.519Z,32.53
2018-05-25T08:29:26.906Z,32.10
2018-05-25T08:32:04.155Z,32.50
2018-05-25T08:34:39.548Z,33.67
2018-05-25T08:37:11.974Z,30.53
2018-05-25T08:39:51.287Z,30.35
2018-05-25T08:42:21.269Z,32.55
2018-05-25T08:44:55.488Z,32.63
2018-05-25T08:47:24.530Z,31.66
2018-05-25T08:49:59.766Z,29.69
2018-05-25T08:52:36.741Z,30.93
2018-05-25T08:55:07.505Z,31.32
2018-05-25T08:57:46.595Z,33.36
2018-05-25T09:00:28.103Z,32.43
2018-05-25T09:03:05.234Z,33.02
2018-05-25T09:05:45.407Z,33.76
2018-05-25T09:08:14.462Z,34.27
2018-05-25T09:10:53.064Z,33.79
2018-05-25T09:13:22.424Z,33.74
2018-05-25T09:16:00.909Z,35.45
2018-05-25T09:18:31.289Z,36.43
2018-05-25T09:21:12.559Z,35.10
2018-05-25T09:23:44.715Z,33.91
2018-05-25T09:26:24.247Z,35.67
2018-05-25T09:28:55.976Z,34.35
2018-05-25T09:31:25.797Z,32.83
2018-05-25T09:34:00.148Z,33.63
2018-05-25T09:36:33.202Z,34.15
2018-05-25T09:39:04.353Z,35.80
2018-05-25T09:41:35.422Z,34.43
2018-05-25T09:44:16.907Z,35.15
2018-05-25T09:46:50.975Z,35.31
2018-05-25T09:49:30.785Z,34.29
2018-05-25T09:52:04.394Z,32.65
2018-05-25T09:54:35.967Z,33.35
2018-05-25T09:57:08.863Z,32.93
2018-05-25T09:59:52.083Z,32.41
2018-05-25T10:02:30.188Z,34.79
2018-05-25T10:05:02.284Z,34.01
2018-05-25T10:07:32.578Z,33.87
2018-05-25T10:10:03.739Z,32.96
2018-05-25T10:12:32.811Z,34.46
2018-05-25T10:15:11.429Z,35.72
2018-05-25T10:17:39.687Z,34.84
2018-05-25T10:20:07.982Z,33.12
2018-05-25T10:22:37.338Z,36.31
2018-05-25T10:25:11.349Z,36.29
2018-05-25T10:27:40.612Z,35.43
2018-05-25T10:30:12.950Z,33.47
2018-05-25T10:32:43.229Z,35.31
2018-05-25T10:35:22.580Z,35.40
2018-05-25T10:37:52.003Z,33.69
2018-05-25T10:40:43.748Z,32.64
2018-05-25T10:43:14.120Z,31.34
2018-05-25T10:45:43.201Z,30.51
2018-05-25T10:48:11.543Z,31.11
2018-05-25T10:50:41.803Z,33.69
2018-05-25T10:53:12.819Z,33.43
2018-05-25T10:55:42.216Z,36.19
2018-05-25T10:58:15.495Z,37.63
2018-05-25T11:00:52.263Z,37.68
2018-05-25T11:03:25.241Z,36.93
2018-05-25T11:06:01.354Z,35.73
2018-05-25T11:08:30.895Z,30.74
2018-05-25T11:14:04.700Z,33.72
2018-05-25T11:16:44.087Z,33.26
2018-05-25T11:19:13.411Z,33.74
2018-05-25T11:21:47.124Z,33.73
2018-05-25T11:24:18.852Z,34.37
2018-05-25T11:27:05.382Z,35.00
2018-05-25T11:30:03.068Z,33.50
2018-05-25T11:32:43.100Z,34.81
2018-05-25T11:35:12.414Z,34.18
2018-05-25T11:37:55.059Z,33.42
2018-05-25T11:40:25.384Z,34.63
2018-05-25T11:42:55.671Z,35.38
2018-05-25T11:45:33.743Z,34.72
2018-05-25T11:48:04.085Z,34.12
2018-05-25T11:50:34.350Z,33.11
2018-05-25T11:53:08.374Z,33.65
2018-05-25T11:55:51.974Z,36.38
2018-05-25T11:58:21.298Z,35.11
2018-05-25T12:00:56.389Z,35.66
2018-05-25T12:03:25.872Z,36.24
2018-05-25T12:05:59.071Z,36.87
2018-05-25T12:08:40.096Z,38.88
2018-05-25T12:11:22.926Z,38.75
2018-05-25T12:13:52.221Z,40.03
2018-05-25T12:16:22.596Z,38.25
2018-05-25T12:18:54.963Z,37.15
2018-05-25T12:21:26.678Z,36.13
2018-05-25T12:24:02.357Z,36.54
2018-05-25T12:26:52.224Z,37.77
2018-05-25T12:29:22.527Z,41.26
2018-05-25T12:31:51.827Z,40.16
2018-05-25T12:34:20.874Z,37.86
2018-05-25T12:36:49.190Z,39.19
2018-05-25T12:39:18.266Z,38.42
2018-05-25T12:41:49.133Z,37.10
2018-05-25T12:44:19.250Z,37.76
2018-05-25T12:46:48.313Z,39.03
2018-05-25T12:49:16.591Z,40.10
2018-05-25T12:51:46.943Z,38.11
2018-05-25T12:54:18.782Z,36.30
2018-05-25T12:56:52.905Z,38.46
2018-05-25T12:59:34.829Z,37.52
2018-05-25T13:02:05.252Z,37.94
2018-05-25T13:04:35.538Z,38.20
2018-05-25T13:07:08.336Z,38.87
2018-05-25T13:09:41.919Z,38.29
2018-05-25T13:12:13.811Z,37.56
2018-05-25T13:14:44.912Z,35.07
2018-05-25T13:17:13.205Z,34.55
2018-05-25T13:19:42.515Z,36.34
2018-05-25T13:22:12.698Z,37.32
2018-05-25T13:24:44.203Z,35.90
2018-05-25T13:27:13.246Z,36.28
2018-05-25T13:29:43.592Z,35.88
2018-05-25T13:32:11.879Z,35.19
2018-05-25T13:34:40.165Z,33.82
2018-05-25T13:37:16.192Z,33.89
2018-05-25T13:39:50.298Z,34.35
2018-05-25T13:42:20.552Z,33.84
2018-05-25T13:44:48.800Z,35.00
2018-05-25T13:47:22.985Z,34.87
2018-05-25T13:49:51.290Z,38.11
2018-05-25T13:52:24.317Z,39.42
2018-05-25T13:54:52.550Z,39.44
2018-05-25T13:57:20.828Z,39.00
2018-05-25T13:59:49.184Z,37.49
2018-05-25T14:02:17.493Z,37.61
2018-05-25T14:04:47.857Z,39.03
2018-05-25T14:07:24.500Z,36.17
2018-05-25T14:09:58.467Z,38.68
2018-05-25T14:12:51.063Z,38.57
2018-05-25T14:15:30.345Z,37.62
2018-05-25T14:18:11.043Z,36.96
2018-05-25T14:20:40.365Z,36.88
2018-05-25T14:23:19.822Z,36.63
2018-05-25T14:25:50.831Z,36.94
2018-05-25T14:28:20.237Z,37.30
2018-05-25T14:31:06.584Z,36.01
2018-05-25T14:33:40.545Z,38.62
2018-05-25T14:36:08.827Z,40.58
2018-05-25T14:41:36.842Z,39.27
2018-05-25T14:44:10.635Z,39.32
2018-05-25T14:47:00.683Z,38.77
2018-05-25T14:49:49.555Z,37.86
2018-05-25T14:52:21.301Z,37.86
2018-05-25T14:58:01.547Z,36.20
2018-05-25T15:00:29.856Z,35.60
2018-05-25T15:02:58.215Z,35.86
2018-05-25T15:05:39.918Z,37.09
2018-05-25T15:08:10.185Z,35.09
2018-05-25T15:10:51.515Z,36.96
2018-05-25T15:13:27.356Z,36.11
2018-05-25T15:16:17.611Z,37.04
2018-05-25T15:18:46.923Z,37.01
2018-05-25T15:21:17.285Z,37.69
2018-05-25T15:23:48.382Z,37.60
2018-05-25T15:26:31.694Z,37.67
2018-05-25T15:29:00.004Z,41.61
2018-05-25T15:31:38.139Z,41.32
2018-05-25T15:34:18.135Z,41.19
2018-05-25T15:36:49.178Z,41.09
2018-05-25T15:39:20.731Z,41.87
2018-05-25T15:41:50.033Z,41.92
2018-05-25T15:44:23.859Z,40.49
2018-05-25T15:47:09.367Z,39.55
2018-05-25T15:49:39.648Z,39.01
2018-05-25T15:52:32.547Z,40.94
2018-05-25T15:55:09.068Z,40.88
2018-05-25T15:57:39.356Z,40.32
2018-05-25T16:00:10.863Z,38.46
2018-05-25T16:02:44.523Z,39.25
2018-05-25T16:05:14.790Z,39.90
2018-05-25T16:07:49.291Z,39.85
2018-05-25T16:10:17.573Z,41.29
2018-05-25T16:12:49.519Z,42.37
2018-05-25T16:15:24.907Z,42.78
2018-05-25T16:18:03.753Z,40.85
2018-05-25T16:20:43.461Z,40.50
2018-05-25T16:23:30.143Z,41.41
2018-05-25T16:26:06.959Z,42.09
2018-05-25T16:28:44.570Z,42.97
2018-05-25T16:31:13.847Z,41.02
2018-05-25T16:33:43.999Z,38.16
2018-05-25T16:36:20.475Z,38.12
2018-05-25T16:38:52.176Z,39.41
2018-05-25T16:41:39.103Z,38.23
2018-05-25T16:44:26.032Z,37.97
2018-05-25T16:47:06.051Z,40.05
2018-05-25T16:49:45.739Z,40.38
2018-05-25T16:52:33.068Z,39.78
2018-05-25T16:55:08.916Z,40.18
2018-05-25T16:57:57.108Z,40.29
2018-05-25T17:00:43.159Z,39.81
2018-05-25T17:03:23.372Z,37.33
2018-05-25T17:06:02.736Z,35.34
2018-05-25T17:08:44.664Z,36.86
2018-05-25T17:11:19.623Z,37.76
2018-05-25T17:14:07.058Z,38.48
2018-05-25T17:16:36.340Z,37.28
2018-05-25T17:19:14.847Z,36.59
2018-05-25T17:21:50.575Z,36.19
2018-05-25T17:24:26.499Z,35.89
2018-05-25T17:26:55.796Z,35.54
2018-05-25T17:29:25.886Z,34.72
2018-05-25T17:31:55.219Z,34.56
2018-05-25T17:34:36.324Z,34.53
2018-05-25T17:37:10.496Z,35.49
2018-05-25T17:39:55.707Z,33.25
2018-05-25T17:42:24.983Z,32.71
2018-05-25T17:44:54.152Z,32.56
2018-05-25T17:47:40.865Z,32.29
2018-05-25T17:50:10.155Z,32.28
2018-05-25T17:52:46.124Z,32.35
2018-05-25T17:55:25.551Z,32.30
2018-05-25T17:58:01.600Z,31.75
2018-05-25T18:00:34.500Z,30.85
2018-05-25T18:03:02.822Z,30.16
2018-05-25T18:05:32.283Z,28.95
2018-05-25T18:08:00.533Z,28.00
2018-05-25T18:10:28.846Z,27.15
2018-05-25T18:12:57.119Z,26.43
2018-05-25T18:15:25.370Z,25.75
2018-05-25T18:17:55.636Z,25.40
2018-05-25T18:20:23.986Z,25.28
2018-05-25T18:22:56.160Z,25.27
2018-05-25T18:25:24.415Z,25.05
2018-05-25T18:27:54.818Z,24.71
2018-05-25T18:30:26.674Z,24.05
2018-05-25T18:32:58.158Z,23.34
2018-05-25T18:35:43.829Z,22.84
2018-05-25T18:38:13.061Z,22.67
2018-05-25T18:40:54.162Z,22.41
2018-05-25T18:43:25.164Z,22.28
2018-05-25T18:45:59.191Z,22.32
2018-05-25T18:48:43.431Z,22.29
2018-05-25T18:51:12.830Z,22.28
2018-05-25T18:53:42.136Z,22.20
2018-05-25T18:56:14.357Z,22.17
2018-05-25T18:58:43.381Z,22.09
2018-05-25T19:01:22.765Z,21.98
2018-05-25T19:04:03.268Z,21.96
2018-05-25T19:06:31.726Z,21.91
2018-05-25T19:09:04.228Z,21.85
2018-05-25T19:11:44.492Z,21.79
2018-05-25T19:14:18.291Z,21.75
2018-05-25T19:16:47.249Z,21.70
2018-05-25T19:19:16.587Z,21.78
2018-05-25T19:22:07.012Z,21.77
2018-05-25T19:24:45.369Z,21.71
2018-05-25T19:27:25.163Z,21.72
2018-05-25T19:30:06.502Z,21.68
2018-05-25T19:32:35.638Z,21.62
2018-05-25T19:35:09.634Z,21.59
2018-05-25T19:37:46.319Z,21.49
2018-05-25T19:40:15.662Z,21.37
2018-05-25T19:42:45.636Z,21.21
2018-05-25T19:45:19.172Z,21.10
2018-05-25T19:47:53.617Z,21.05
2018-05-25T19:50:35.687Z,20.97
2018-05-25T19:53:05.235Z,20.87
2018-05-25T19:55:37.148Z,20.79
2018-05-25T19:58:05.475Z,20.74
2018-05-25T20:00:39.454Z,20.68
2018-05-25T20:03:09.524Z,20.70
2018-05-25T20:05:49.784Z,20.68
2018-05-25T20:08:18.074Z,20.68
2018-05-25T20:11:11.533Z,20.64
2018-05-25T20:13:40.828Z,20.57
2018-05-25T20:16:19.759Z,20.48
2018-05-25T20:18:58.453Z,20.40
2018-05-25T20:21:28.809Z,20.35
2018-05-25T20:23:59.035Z,20.35
2018-05-25T20:26:32.765Z,20.27
2018-05-25T20:29:01.023Z,20.12
2018-05-25T20:35:05.787Z,19.71
2018-05-25T20:37:36.031Z,19.62
2018-05-25T20:40:06.122Z,19.53
2018-05-25T20:42:40.769Z,19.42
2018-05-25T20:45:21.775Z,19.30
2018-05-25T20:48:09.972Z,19.24
2018-05-25T20:50:39.312Z,19.26
2018-05-25T20:53:13.231Z,19.21
2018-05-25T20:55:43.613Z,19.25
2018-05-25T20:58:15.712Z,19.32
2018-05-25T21:00:45.371Z,19.38
2018-05-25T21:03:13.816Z,19.33
2018-05-25T21:05:42.265Z,19.23
2018-05-25T21:08:14.837Z,19.20
2018-05-25T21:10:48.185Z,19.09
2018-05-25T21:13:17.522Z,19.02
2018-05-25T21:15:48.807Z,18.92
2018-05-25T21:18:21.188Z,18.85
2018-05-25T21:20:50.500Z,18.84
2018-05-25T21:23:20.987Z,18.75
2018-05-25T21:25:56.395Z,18.74
2018-05-25T21:28:27.295Z,18.71
2018-05-25T21:31:02.581Z,18.59
2018-05-25T21:33:30.828Z,18.50
2018-05-25T21:36:01.417Z,18.37
2018-05-25T21:38:35.353Z,18.37
2018-05-25T21:41:04.607Z,18.36
2018-05-25T21:43:38.300Z,18.35
2018-05-25T21:46:12.314Z,18.28
2018-05-25T21:48:47.698Z,18.15
2018-05-25T21:51:33.598Z,18.05
2018-05-25T21:57:03.593Z,17.82
2018-05-25T21:59:39.847Z,17.84
2018-05-25T22:02:08.160Z,17.83
2018-05-25T22:04:44.343Z,17.80
2018-05-25T22:07:31.642Z,17.82
2018-05-25T22:10:03.980Z,17.73
2018-05-25T22:12:39.602Z,17.78
2018-05-25T22:15:20.626Z,17.75
2018-05-25T22:18:02.460Z,17.75
2018-05-25T22:20:35.122Z,17.77
2018-05-25T22:23:05.284Z,17.70
2018-05-25T22:28:41.025Z,17.52
2018-05-25T22:31:11.795Z,17.45
2018-05-25T22:37:15.804Z,17.47
2018-05-25T22:39:56.782Z,17.39
2018-05-25T22:42:45.813Z,17.28
2018-05-25T22:45:36.507Z,17.18
2018-05-25T22:48:23.530Z,17.12
2018-05-25T22:51:13.016Z,17.04
2018-05-25T22:53:52.076Z,16.93
2018-05-25T22:56:25.085Z,16.85
2018-05-25T22:59:01.768Z,16.75
2018-05-25T23:01:42.809Z,16.70
2018-05-25T23:04:13.120Z,16.61
2018-05-25T23:06:42.403Z,16.51
2018-05-25T23:09:24.706Z,16.42
2018-05-25T23:12:12.029Z,16.29
2018-05-25T23:14:47.643Z,16.17
2018-05-25T23:17:21.226Z,16.05
2018-05-25T23:19:50.800Z,16.02
2018-05-25T23:22:37.767Z,15.95
2018-05-25T23:25:07.139Z,15.88
2018-05-25T23:27:36.811Z,15.88
2018-05-25T23:30:06.173Z,15.88
2018-05-25T23:32:37.108Z,15.82
2018-05-25T23:35:07.409Z,15.74
2018-05-25T23:37:35.709Z,15.70
2018-05-25T23:40:08.001Z,15.66
2018-05-25T23:42:38.146Z,15.59
2018-05-25T23:45:16.193Z,15.50
2018-05-25T23:47:48.226Z,15.43
2018-05-25T23:50:28.628Z,15.39
2018-05-25T23:52:57.936Z,15.40
2018-05-25T23:55:28.357Z,15.37
2018-05-25T23:58:09.003Z,15.31
